createdAt,value
2022-10-26T00:00:50.257Z,13.73
2022-10-26T00:01:50.415Z,13.75
2022-10-26T00:02:50.694Z,13.68
2022-10-26T00:03:50.355Z,13.63
2022-10-26T00:04:50.387Z,13.61
2022-10-26T00:05:50.423Z,13.62
2022-10-26T00:06:50.457Z,13.68
2022-10-26T00:07:50.564Z,13.73
2022-10-26T00:08:50.519Z,13.62
2022-10-26T00:09:50.550Z,13.71
2022-10-26T00:10:50.587Z,13.71
2022-10-26T00:11:50.618Z,13.65
2022-10-26T00:12:50.952Z,13.65
2022-10-26T00:13:50.684Z,13.63
2022-10-26T00:14:50.718Z,13.69
2022-10-26T00:15:50.806Z,13.69
2022-10-26T00:16:50.784Z,13.69
2022-10-26T00:17:51.093Z,13.69
2022-10-26T00:18:50.849Z,13.59
2022-10-26T00:19:50.882Z,13.65
2022-10-26T00:20:50.916Z,13.63
2022-10-26T00:21:50.947Z,13.59
2022-10-26T00:22:51.010Z,13.50
2022-10-26T00:23:51.050Z,13.57
2022-10-26T00:24:51.086Z,13.62
2022-10-26T00:25:51.080Z,13.55
2022-10-26T00:26:51.116Z,13.51
2022-10-26T00:27:51.388Z,13.62
2022-10-26T00:28:51.184Z,13.63
2022-10-26T00:29:51.211Z,13.54
2022-10-26T00:30:51.247Z,13.57
2022-10-26T00:31:51.282Z,13.53
2022-10-26T00:32:51.312Z,13.55
2022-10-26T00:33:51.344Z,13.59
2022-10-26T00:34:51.379Z,13.48
2022-10-26T00:35:51.411Z,13.54
2022-10-26T00:36:51.445Z,13.55
2022-10-26T00:37:51.664Z,13.55
2022-10-26T00:38:51.509Z,13.50
2022-10-26T00:39:51.543Z,13.48
2022-10-26T00:40:51.657Z,13.57
2022-10-26T00:41:51.608Z,13.51
2022-10-26T00:42:51.882Z,13.43
2022-10-26T00:43:51.674Z,13.51
2022-10-26T00:44:51.708Z,13.48
2022-10-26T00:45:51.738Z,13.53
2022-10-26T00:46:51.773Z,13.47
2022-10-26T00:47:51.806Z,13.46
2022-10-26T00:48:51.840Z,13.47
2022-10-26T00:49:51.871Z,13.39
2022-10-26T00:50:51.904Z,13.41
2022-10-26T00:51:51.941Z,13.50
2022-10-26T00:52:52.036Z,13.46
2022-10-26T00:53:52.004Z,13.41
2022-10-26T00:54:52.036Z,13.46
2022-10-26T00:55:52.073Z,13.41
2022-10-26T00:56:52.104Z,13.41
2022-10-26T00:57:52.133Z,13.39
2022-10-26T00:58:52.168Z,13.38
2022-10-26T00:59:52.200Z,13.43
2022-10-26T01:00:52.233Z,13.39
2022-10-26T01:01:52.265Z,13.36
2022-10-26T01:02:52.382Z,13.43
2022-10-26T01:03:52.415Z,13.39
2022-10-26T01:04:52.364Z,13.32
2022-10-26T01:05:52.397Z,13.38
2022-10-26T01:06:52.439Z,13.36
2022-10-26T01:07:52.671Z,13.46
2022-10-26T01:08:52.495Z,13.29
2022-10-26T01:09:52.530Z,13.39
2022-10-26T01:10:52.563Z,13.35
2022-10-26T01:11:52.600Z,13.39
2022-10-26T01:12:52.628Z,13.39
2022-10-26T01:13:55.558Z,13.29
2022-10-26T01:14:52.710Z,13.31
2022-10-26T01:15:52.746Z,13.28
2022-10-26T01:16:52.839Z,13.27
2022-10-26T01:17:52.804Z,13.27
2022-10-26T01:18:52.836Z,13.35
2022-10-26T01:19:52.867Z,13.32
2022-10-26T01:20:52.901Z,13.24
2022-10-26T01:21:52.936Z,13.28
2022-10-26T01:22:52.967Z,13.22
2022-10-26T01:23:53.000Z,13.22
2022-10-26T01:24:53.031Z,13.25
2022-10-26T01:25:53.073Z,13.21
2022-10-26T01:27:53.141Z,13.24
2022-10-26T01:28:53.162Z,13.22
2022-10-26T01:29:53.196Z,13.25
2022-10-26T01:30:53.228Z,13.22
2022-10-26T01:31:53.260Z,13.17
2022-10-26T01:32:53.293Z,13.10
2022-10-26T01:33:53.326Z,13.14
2022-10-26T01:34:53.362Z,13.16
2022-10-26T01:35:53.392Z,13.12
2022-10-26T01:36:53.423Z,13.12
2022-10-26T01:37:53.462Z,13.13
2022-10-26T01:38:53.495Z,13.12
2022-10-26T01:39:53.523Z,13.09
2022-10-26T01:40:53.559Z,13.04
2022-10-26T01:41:53.595Z,13.10
2022-10-26T01:42:53.621Z,13.09
2022-10-26T01:43:53.656Z,13.04
2022-10-26T01:44:53.686Z,13.07
2022-10-26T01:45:53.723Z,13.04
2022-10-26T01:46:53.752Z,13.04
2022-10-26T01:47:53.784Z,13.03
2022-10-26T01:48:53.817Z,13.03
2022-10-26T01:49:53.851Z,13.07
2022-10-26T01:50:53.895Z,13.07
2022-10-26T01:51:53.915Z,12.95
2022-10-26T01:52:53.954Z,13.07
2022-10-26T01:53:53.987Z,13.01
2022-10-26T01:54:54.015Z,12.96
2022-10-26T01:55:54.047Z,12.96
2022-10-26T01:56:54.079Z,12.99
2022-10-26T01:57:54.111Z,12.98
2022-10-26T01:58:54.148Z,12.98
2022-10-26T01:59:54.190Z,12.98
2022-10-26T02:00:54.210Z,12.95
2022-10-26T02:01:54.247Z,12.92
2022-10-26T02:02:54.277Z,12.94
2022-10-26T02:03:54.369Z,12.95
2022-10-26T02:04:54.344Z,12.87
2022-10-26T02:05:54.374Z,12.92
2022-10-26T02:06:54.406Z,12.88
2022-10-26T02:07:54.438Z,12.95
2022-10-26T02:08:54.471Z,12.98
2022-10-26T02:09:54.509Z,12.95
2022-10-26T02:10:54.538Z,12.88
2022-10-26T02:11:54.573Z,12.88
2022-10-26T02:12:54.604Z,12.91
2022-10-26T02:13:54.643Z,12.98
2022-10-26T02:14:54.672Z,12.89
2022-10-26T02:15:54.703Z,12.91
2022-10-26T02:16:54.736Z,12.89
2022-10-26T02:17:54.763Z,12.96
2022-10-26T02:18:54.799Z,12.84
2022-10-26T02:19:54.832Z,12.92
2022-10-26T02:20:54.865Z,12.88
2022-10-26T02:21:54.896Z,12.89
2022-10-26T02:22:54.930Z,12.81
2022-10-26T02:23:55.018Z,12.92
2022-10-26T02:24:54.995Z,12.88
2022-10-26T02:25:55.034Z,12.87
2022-10-26T02:26:55.065Z,12.89
2022-10-26T02:27:55.092Z,12.85
2022-10-26T02:28:55.122Z,12.81
2022-10-26T02:29:55.158Z,12.80
2022-10-26T02:30:55.189Z,12.85
2022-10-26T02:31:55.222Z,12.85
2022-10-26T02:32:55.256Z,12.81
2022-10-26T02:33:55.290Z,12.80
2022-10-26T02:34:55.318Z,12.70
2022-10-26T02:35:55.350Z,12.79
2022-10-26T02:36:55.381Z,12.76
2022-10-26T02:37:55.416Z,12.73
2022-10-26T02:38:55.447Z,12.74
2022-10-26T02:39:55.479Z,12.76
2022-10-26T02:40:55.513Z,12.71
2022-10-26T02:41:55.544Z,12.80
2022-10-26T02:42:55.582Z,12.76
2022-10-26T02:43:55.610Z,12.70
2022-10-26T02:44:55.644Z,12.67
2022-10-26T02:45:55.675Z,12.71
2022-10-26T02:46:55.708Z,12.70
2022-10-26T02:47:55.742Z,12.73
2022-10-26T02:48:55.773Z,12.67
2022-10-26T02:49:55.804Z,12.76
2022-10-26T02:50:55.839Z,12.63
2022-10-26T02:51:55.873Z,12.69
2022-10-26T02:52:55.903Z,12.66
2022-10-26T02:53:55.935Z,12.54
2022-10-26T02:54:55.967Z,12.55
2022-10-26T02:55:55.999Z,12.56
2022-10-26T02:56:56.032Z,12.62
2022-10-26T02:57:56.064Z,12.69
2022-10-26T02:58:56.096Z,12.62
2022-10-26T02:59:56.182Z,12.58
2022-10-26T03:00:56.162Z,12.49
2022-10-26T03:01:56.200Z,12.54
2022-10-26T03:02:56.228Z,12.46
2022-10-26T03:03:56.299Z,12.52
2022-10-26T03:04:56.290Z,12.49
2022-10-26T03:05:56.325Z,12.44
2022-10-26T03:06:56.358Z,12.44
2022-10-26T03:07:56.390Z,12.51
2022-10-26T03:08:56.420Z,12.59
2022-10-26T03:09:56.453Z,12.56
2022-10-26T03:10:56.485Z,12.56
2022-10-26T03:11:56.518Z,12.51
2022-10-26T03:12:56.548Z,12.55
2022-10-26T03:13:56.586Z,12.52
2022-10-26T03:14:56.614Z,12.54
2022-10-26T03:15:56.648Z,12.49
2022-10-26T03:16:56.680Z,12.43
2022-10-26T03:17:56.713Z,12.59
2022-10-26T03:18:56.746Z,12.55
2022-10-26T03:19:56.780Z,12.52
2022-10-26T03:20:56.807Z,12.55
2022-10-26T03:21:56.842Z,12.56
2022-10-26T03:22:56.873Z,12.56
2022-10-26T03:23:56.908Z,12.56
2022-10-26T03:24:56.972Z,12.52
2022-10-26T03:25:56.970Z,12.54
2022-10-26T03:26:59.606Z,12.51
2022-10-26T03:27:57.038Z,12.54
2022-10-26T03:28:57.068Z,12.46
2022-10-26T03:29:57.099Z,12.52
2022-10-26T03:30:57.137Z,12.46
2022-10-26T03:31:57.165Z,12.48
2022-10-26T03:32:57.195Z,12.38
2022-10-26T03:33:57.232Z,12.54
2022-10-26T03:34:57.265Z,12.46
2022-10-26T03:35:57.298Z,12.49
2022-10-26T03:36:57.329Z,12.52
2022-10-26T03:37:57.357Z,12.54
2022-10-26T03:38:57.390Z,12.43
2022-10-26T03:39:57.423Z,12.52
2022-10-26T03:40:57.454Z,12.56
2022-10-26T03:41:57.490Z,12.49
2022-10-26T03:42:57.520Z,12.54
2022-10-26T03:43:57.553Z,12.51
2022-10-26T03:44:57.583Z,12.56
2022-10-26T03:45:57.616Z,12.55
2022-10-26T03:46:57.655Z,12.54
2022-10-26T03:47:57.683Z,12.59
2022-10-26T03:48:57.715Z,12.51
2022-10-26T03:49:57.790Z,12.51
2022-10-26T03:50:57.779Z,12.48
2022-10-26T03:51:57.815Z,12.56
2022-10-26T03:52:57.842Z,12.48
2022-10-26T03:53:57.874Z,12.51
2022-10-26T03:54:57.909Z,12.54
2022-10-26T03:55:57.939Z,12.59
2022-10-26T03:56:57.971Z,12.52
2022-10-26T03:57:58.005Z,12.54
2022-10-26T03:58:58.038Z,12.56
2022-10-26T03:59:58.071Z,12.55
2022-10-26T04:00:58.099Z,12.51
2022-10-26T04:01:58.226Z,12.54
2022-10-26T04:02:58.164Z,12.46
2022-10-26T04:03:58.245Z,12.59
2022-10-26T04:04:58.228Z,12.55
2022-10-26T04:05:58.262Z,12.51
2022-10-26T04:06:58.294Z,12.58
2022-10-26T04:07:58.330Z,12.44
2022-10-26T04:08:58.358Z,12.48
2022-10-26T04:09:58.410Z,12.52
2022-10-26T04:11:01.004Z,12.52
2022-10-26T04:11:58.458Z,12.51
2022-10-26T04:12:58.488Z,12.58
2022-10-26T04:13:58.521Z,12.51
2022-10-26T04:14:58.607Z,12.55
2022-10-26T04:15:58.589Z,12.55
2022-10-26T04:16:58.620Z,12.52
2022-10-26T04:17:58.650Z,12.48
2022-10-26T04:18:58.683Z,12.58
2022-10-26T04:19:58.716Z,12.41
2022-10-26T04:20:58.745Z,12.55
2022-10-26T04:21:58.780Z,12.44
2022-10-26T04:22:58.811Z,12.54
2022-10-26T04:24:06.075Z,12.51
2022-10-26T04:26:02.909Z,12.54
2022-10-26T04:27:02.934Z,12.56
2022-10-26T04:28:56.139Z,12.44
2022-10-26T04:29:56.128Z,12.48
2022-10-26T04:31:49.304Z,12.44
2022-10-26T04:32:49.598Z,12.49
2022-10-26T04:34:42.493Z,12.51
2022-10-26T04:35:42.519Z,12.58
2022-10-26T04:37:35.717Z,12.52
2022-10-26T04:38:35.707Z,12.56
2022-10-26T04:40:28.887Z,12.52
2022-10-26T04:41:28.903Z,12.54
2022-10-26T04:43:22.072Z,12.44
2022-10-26T04:44:22.098Z,12.41
2022-10-26T04:46:16.762Z,12.44
2022-10-26T04:47:15.104Z,12.44
2022-10-26T04:49:08.303Z,12.41
2022-10-26T04:50:08.297Z,12.43
2022-10-26T04:52:12.364Z,12.49
2022-10-26T04:53:12.394Z,12.43
2022-10-26T04:55:05.609Z,12.43
2022-10-26T04:56:05.587Z,12.43
2022-10-26T04:58:09.639Z,12.40
2022-10-26T04:59:09.666Z,12.49
2022-10-26T05:01:02.884Z,12.43
2022-10-26T05:02:02.981Z,12.40
2022-10-26T05:04:06.937Z,12.40
2022-10-26T05:05:08.892Z,12.49
2022-10-26T05:06:59.950Z,12.49
2022-10-26T05:07:59.977Z,12.37
2022-10-26T05:09:53.148Z,12.43
2022-10-26T05:10:53.173Z,12.43
2022-10-26T05:12:46.383Z,12.41
2022-10-26T05:13:46.370Z,12.36
2022-10-26T05:15:39.535Z,12.37
2022-10-26T05:16:39.565Z,12.43
2022-10-26T05:18:32.729Z,12.38
2022-10-26T05:19:32.756Z,12.43
2022-10-26T05:21:25.941Z,12.43
2022-10-26T05:22:25.968Z,12.51
2022-10-26T05:24:19.126Z,12.38
2022-10-26T05:25:19.156Z,12.33
2022-10-26T05:27:12.318Z,12.33
2022-10-26T05:28:12.346Z,12.40
2022-10-26T05:31:05.538Z,12.43
2022-10-26T05:33:09.608Z,12.43
2022-10-26T05:34:09.632Z,12.33
2022-10-26T05:36:02.794Z,12.38
2022-10-26T05:37:02.820Z,12.36
2022-10-26T05:39:06.933Z,12.34
2022-10-26T05:40:06.925Z,12.40
2022-10-26T05:42:00.093Z,12.36
2022-10-26T05:43:00.121Z,12.38
2022-10-26T05:45:04.242Z,12.34
2022-10-26T05:46:04.235Z,12.31
2022-10-26T05:48:00.134Z,12.40
2022-10-26T05:48:57.424Z,12.36
2022-10-26T05:50:50.605Z,12.34
2022-10-26T05:51:50.627Z,12.36
2022-10-26T05:53:54.687Z,12.36
2022-10-26T05:54:54.746Z,12.30
2022-10-26T05:56:47.692Z,12.37
2022-10-26T05:57:47.940Z,12.40
2022-10-26T05:59:40.889Z,12.34
2022-10-26T06:00:40.910Z,12.36
2022-10-26T06:02:34.157Z,12.30
2022-10-26T06:03:34.106Z,12.29
2022-10-26T06:05:27.269Z,12.21
2022-10-26T06:06:27.294Z,12.26
2022-10-26T06:08:31.404Z,12.21
2022-10-26T06:09:31.405Z,12.21
2022-10-26T06:11:35.537Z,12.22
2022-10-26T06:12:35.520Z,12.22
2022-10-26T06:14:39.561Z,12.21
2022-10-26T06:15:39.602Z,12.25
2022-10-26T06:17:32.763Z,12.22
2022-10-26T06:18:32.785Z,12.18
2022-10-26T06:20:25.956Z,12.23
2022-10-26T06:21:25.973Z,12.29
2022-10-26T06:23:19.149Z,12.19
2022-10-26T06:24:19.186Z,12.21
2022-10-26T06:26:12.156Z,12.34
2022-10-26T06:27:15.766Z,12.29
2022-10-26T06:29:16.295Z,12.34
2022-10-26T06:30:16.288Z,12.22
2022-10-26T06:32:20.370Z,12.31
2022-10-26T06:33:30.640Z,12.22
2022-10-26T06:35:13.561Z,12.31
2022-10-26T06:36:13.585Z,12.21
2022-10-26T06:38:06.791Z,12.31
2022-10-26T06:39:06.778Z,12.30
2022-10-26T06:41:00.006Z,12.34
2022-10-26T06:41:59.981Z,12.37
2022-10-26T06:44:04.047Z,12.38
2022-10-26T06:45:04.123Z,12.25
2022-10-26T06:46:57.048Z,12.19
2022-10-26T06:47:57.075Z,12.21
2022-10-26T06:50:02.172Z,12.36
2022-10-26T06:51:02.191Z,12.29
2022-10-26T06:53:06.302Z,12.40
2022-10-26T06:54:06.316Z,12.44
2022-10-26T06:55:59.507Z,12.46
2022-10-26T06:56:59.513Z,12.37
2022-10-26T06:58:52.680Z,12.49
2022-10-26T06:59:52.701Z,12.36
2022-10-26T07:01:45.975Z,12.44
2022-10-26T07:02:45.957Z,12.43
2022-10-26T07:04:39.095Z,12.44
2022-10-26T07:05:39.089Z,12.46
2022-10-26T07:07:43.198Z,12.52
2022-10-26T07:08:43.186Z,12.55
2022-10-26T07:10:47.249Z,12.46
2022-10-26T07:11:47.277Z,12.56
2022-10-26T07:13:40.487Z,12.58
2022-10-26T07:14:40.467Z,12.49
2022-10-26T07:16:33.457Z,12.56
2022-10-26T07:17:33.484Z,12.61
2022-10-26T07:19:37.585Z,12.62
2022-10-26T07:20:37.579Z,12.66
2022-10-26T07:22:41.660Z,12.73
2022-10-26T07:23:41.686Z,12.74
2022-10-26T07:25:34.862Z,12.79
2022-10-26T07:26:34.887Z,12.87
2022-10-26T07:28:28.051Z,12.95
2022-10-26T07:29:28.079Z,12.88
2022-10-26T07:31:21.252Z,12.89
2022-10-26T07:32:21.277Z,12.85
2022-10-26T07:34:14.496Z,12.99
2022-10-26T07:35:14.477Z,12.95
2022-10-26T07:37:18.562Z,12.98
2022-10-26T07:38:18.655Z,13.03
2022-10-26T07:41:22.698Z,13.04
2022-10-26T07:43:26.795Z,13.04
2022-10-26T07:44:26.783Z,13.12
2022-10-26T07:46:19.780Z,13.25
2022-10-26T07:47:19.810Z,13.25
2022-10-26T07:49:15.230Z,13.29
2022-10-26T07:50:13.001Z,13.32
2022-10-26T07:52:06.170Z,13.31
2022-10-26T07:53:06.198Z,13.32
2022-10-26T07:54:59.372Z,13.38
2022-10-26T07:55:59.397Z,13.39
2022-10-26T07:58:03.499Z,13.41
2022-10-26T07:59:03.491Z,13.55
2022-10-26T08:00:56.710Z,13.62
2022-10-26T08:01:56.725Z,13.54
2022-10-26T08:04:00.787Z,13.54
2022-10-26T08:05:00.797Z,13.62
2022-10-26T08:06:53.804Z,13.62
2022-10-26T08:07:53.799Z,13.68
2022-10-26T08:09:46.972Z,13.73
2022-10-26T08:10:47.002Z,13.76
2022-10-26T08:12:40.297Z,13.81
2022-10-26T08:13:40.258Z,13.84
2022-10-26T08:15:44.375Z,13.88
2022-10-26T08:16:44.369Z,13.99
2022-10-26T08:18:37.580Z,14.11
2022-10-26T08:19:37.569Z,14.19
2022-10-26T08:21:40.243Z,14.17
2022-10-26T08:22:30.766Z,14.27
2022-10-26T08:24:23.959Z,14.34
2022-10-26T08:25:23.953Z,14.36
2022-10-26T08:27:28.031Z,14.45
2022-10-26T08:28:28.054Z,14.54
2022-10-26T08:30:32.157Z,14.59
2022-10-26T08:31:32.149Z,14.59
2022-10-26T08:33:25.325Z,14.72
2022-10-26T08:34:25.352Z,14.78
2022-10-26T08:36:18.324Z,14.97
2022-10-26T08:37:18.350Z,14.98
2022-10-26T08:39:11.524Z,15.07
2022-10-26T08:40:11.546Z,15.13
2022-10-26T08:42:15.602Z,15.25
2022-10-26T08:43:15.633Z,15.35
2022-10-26T08:45:22.247Z,15.49
2022-10-26T08:46:19.725Z,15.46
2022-10-26T08:48:12.890Z,15.53
2022-10-26T08:49:12.928Z,15.67
2022-10-26T08:51:06.084Z,15.88
2022-10-26T08:52:06.111Z,15.91
2022-10-26T08:54:10.221Z,16.08
2022-10-26T08:55:10.216Z,16.23
2022-10-26T08:57:14.313Z,16.57
2022-10-26T08:58:14.306Z,16.70
2022-10-26T09:00:07.505Z,16.90
2022-10-26T09:01:07.553Z,16.95
2022-10-26T09:03:00.665Z,17.20
2022-10-26T09:06:04.801Z,17.24
2022-10-26T09:07:04.815Z,17.30
2022-10-26T09:08:57.973Z,17.40
2022-10-26T09:09:57.999Z,17.53
2022-10-26T09:12:02.071Z,17.63
2022-10-26T09:13:02.097Z,17.73
2022-10-26T09:15:06.155Z,17.71
2022-10-26T09:16:06.187Z,17.77
2022-10-26T09:18:10.280Z,17.86
2022-10-26T09:19:10.274Z,17.87
2022-10-26T09:21:14.384Z,17.96
2022-10-26T09:22:14.377Z,18.01
2022-10-26T09:24:18.445Z,17.95
2022-10-26T09:25:18.475Z,18.01
2022-10-26T09:27:22.532Z,18.23
2022-10-26T09:28:22.564Z,18.39
2022-10-26T09:30:26.648Z,18.68
2022-10-26T09:31:26.685Z,18.59
2022-10-26T09:33:30.767Z,18.75
2022-10-26T09:34:30.789Z,18.82
2022-10-26T09:36:23.802Z,18.83
2022-10-26T09:37:23.806Z,18.89
2022-10-26T09:39:27.866Z,19.25
2022-10-26T09:40:27.896Z,19.31
2022-10-26T09:42:31.986Z,19.70
2022-10-26T09:43:32.018Z,20.12
2022-10-26T09:45:25.192Z,21.63
2022-10-26T09:46:25.224Z,22.76
2022-10-26T09:48:29.306Z,25.41
2022-10-26T09:49:29.330Z,26.51
2022-10-26T09:51:33.441Z,28.30
2022-10-26T09:52:33.440Z,29.36
2022-10-26T09:54:37.496Z,29.85
2022-10-26T09:55:37.530Z,30.19
2022-10-26T09:57:41.615Z,30.37
2022-10-26T09:58:41.617Z,30.29
2022-10-26T10:00:45.675Z,29.70
2022-10-26T10:01:45.715Z,29.47
2022-10-26T10:03:49.763Z,29.17
2022-10-26T10:04:49.793Z,28.82
2022-10-26T10:06:42.812Z,28.54
2022-10-26T10:07:42.803Z,28.50
2022-10-26T10:09:46.898Z,28.80
2022-10-26T10:10:46.889Z,28.94
2022-10-26T10:12:51.449Z,29.45
2022-10-26T10:13:50.979Z,29.69
2022-10-26T10:15:55.064Z,29.99
2022-10-26T10:16:55.093Z,30.26
2022-10-26T10:18:59.164Z,29.91
2022-10-26T10:19:59.194Z,29.76
2022-10-26T10:22:03.320Z,29.35
2022-10-26T10:23:03.302Z,29.10
2022-10-26T10:24:56.318Z,28.97
2022-10-26T10:25:56.480Z,29.18
2022-10-26T10:27:49.918Z,28.69
2022-10-26T10:28:49.578Z,28.65
2022-10-26T10:29:49.624Z,28.39
2022-10-26T10:30:49.666Z,28.20
2022-10-26T10:31:49.711Z,28.11
2022-10-26T10:32:50.011Z,28.02
2022-10-26T10:33:49.795Z,27.87
2022-10-26T10:34:49.840Z,27.81
2022-10-26T10:35:49.883Z,27.68
2022-10-26T10:36:49.929Z,27.61
2022-10-26T10:37:49.973Z,27.63
2022-10-26T10:38:50.017Z,27.78
2022-10-26T10:39:50.060Z,27.96
2022-10-26T10:40:50.107Z,28.21
2022-10-26T10:41:50.151Z,28.55
2022-10-26T10:42:50.539Z,28.77
2022-10-26T10:43:50.240Z,28.89
2022-10-26T10:44:50.285Z,28.76
2022-10-26T10:45:50.343Z,28.88
2022-10-26T10:46:50.375Z,28.57
2022-10-26T10:47:50.420Z,28.52
2022-10-26T10:48:50.463Z,28.32
2022-10-26T10:49:50.511Z,28.05
2022-10-26T10:50:50.554Z,28.05
2022-10-26T10:51:50.598Z,28.08
2022-10-26T10:52:51.025Z,28.06
2022-10-26T10:53:50.692Z,27.98
2022-10-26T10:54:50.734Z,27.96
2022-10-26T10:56:50.822Z,27.93
2022-10-26T10:57:51.157Z,27.81
2022-10-26T10:58:50.913Z,27.84
2022-10-26T10:59:50.959Z,27.83
2022-10-26T11:00:51.006Z,27.83
2022-10-26T11:01:51.187Z,27.90
2022-10-26T11:02:51.090Z,27.87
2022-10-26T11:03:51.133Z,27.93
2022-10-26T11:04:51.184Z,28.09
2022-10-26T11:05:51.224Z,28.30
2022-10-26T11:06:51.269Z,28.80
2022-10-26T11:07:51.627Z,29.23
2022-10-26T11:08:51.355Z,29.91
2022-10-26T11:09:51.452Z,30.45
2022-10-26T11:10:51.450Z,31.05
2022-10-26T11:11:51.487Z,31.54
2022-10-26T11:12:51.536Z,32.17
2022-10-26T11:13:51.583Z,32.71
2022-10-26T11:14:51.618Z,33.22
2022-10-26T11:15:51.663Z,33.21
2022-10-26T11:16:51.707Z,33.14
2022-10-26T11:17:52.121Z,32.91
2022-10-26T11:18:51.793Z,32.59
2022-10-26T11:19:51.836Z,32.34
2022-10-26T11:20:51.936Z,32.14
2022-10-26T11:21:51.925Z,31.85
2022-10-26T11:22:52.476Z,31.62
2022-10-26T11:23:52.009Z,31.64
2022-10-26T11:24:52.056Z,31.32
2022-10-26T11:25:52.102Z,31.16
2022-10-26T11:26:52.141Z,30.93
2022-10-26T11:27:52.438Z,30.79
2022-10-26T11:28:52.228Z,30.63
2022-10-26T11:29:52.272Z,30.45
2022-10-26T11:30:52.324Z,30.19
2022-10-26T11:31:52.365Z,30.00
2022-10-26T11:32:52.652Z,29.99
2022-10-26T11:33:52.497Z,29.88
2022-10-26T11:34:52.490Z,29.74
2022-10-26T11:35:52.532Z,29.54
2022-10-26T11:36:52.575Z,29.36
2022-10-26T11:37:52.618Z,29.15
2022-10-26T11:38:57.121Z,29.23
2022-10-26T11:39:52.711Z,29.12
2022-10-26T11:40:52.752Z,29.21
2022-10-26T11:41:52.796Z,29.20
2022-10-26T11:42:52.960Z,29.18
2022-10-26T11:43:52.884Z,29.03
2022-10-26T11:44:53.263Z,29.08
2022-10-26T11:45:53.036Z,28.82
2022-10-26T11:46:53.022Z,28.82
2022-10-26T11:47:53.324Z,28.67
2022-10-26T11:48:53.116Z,28.61
2022-10-26T11:49:53.159Z,28.77
2022-10-26T11:50:53.319Z,28.88
2022-10-26T11:51:53.250Z,29.05
2022-10-26T11:52:53.567Z,29.07
2022-10-26T11:53:53.343Z,29.10
2022-10-26T11:54:53.401Z,29.07
2022-10-26T11:55:53.507Z,28.87
2022-10-26T11:56:53.484Z,28.79
2022-10-26T11:57:53.797Z,28.87
2022-10-26T11:58:53.654Z,28.91
2022-10-26T11:59:53.623Z,29.05
2022-10-26T12:00:53.665Z,29.07
2022-10-26T12:01:53.709Z,29.15
2022-10-26T12:02:53.757Z,29.37
2022-10-26T12:03:53.817Z,29.48
2022-10-26T12:04:53.849Z,29.82
2022-10-26T12:05:53.898Z,30.13
2022-10-26T12:06:53.943Z,30.48
2022-10-26T12:07:53.989Z,31.09
2022-10-26T12:08:54.031Z,31.59
2022-10-26T12:09:54.075Z,32.25
2022-10-26T12:10:54.205Z,32.73
2022-10-26T12:11:54.165Z,33.20
2022-10-26T12:12:54.217Z,33.66
2022-10-26T12:13:54.255Z,34.01
2022-10-26T12:14:54.299Z,34.28
2022-10-26T12:16:09.751Z,34.56
2022-10-26T12:16:54.396Z,34.93
2022-10-26T12:17:54.438Z,35.12
2022-10-26T12:18:56.356Z,35.17
2022-10-26T12:19:54.522Z,35.09
2022-10-26T12:20:54.572Z,35.00
2022-10-26T12:21:54.613Z,34.71
2022-10-26T12:22:54.656Z,34.55
2022-10-26T12:23:54.700Z,34.40
2022-10-26T12:24:54.745Z,34.18
2022-10-26T12:25:54.790Z,34.23
2022-10-26T12:26:54.838Z,34.38
2022-10-26T12:27:54.973Z,34.73
2022-10-26T12:28:54.939Z,35.20
2022-10-26T12:29:54.967Z,35.47
2022-10-26T12:30:55.011Z,35.80
2022-10-26T12:31:55.057Z,36.15
2022-10-26T12:32:55.108Z,36.62
2022-10-26T12:33:55.142Z,36.65
2022-10-26T12:34:55.191Z,36.64
2022-10-26T12:35:55.251Z,36.67
2022-10-26T12:36:55.277Z,36.86
2022-10-26T12:37:55.325Z,37.04
2022-10-26T12:38:55.366Z,37.16
2022-10-26T12:39:55.412Z,37.45
2022-10-26T12:40:55.458Z,37.78
2022-10-26T12:41:55.502Z,38.04
2022-10-26T12:42:55.548Z,38.15
2022-10-26T12:43:55.593Z,38.15
2022-10-26T12:44:55.640Z,38.19
2022-10-26T12:45:55.685Z,37.84
2022-10-26T12:46:55.732Z,37.38
2022-10-26T12:47:55.775Z,37.06
2022-10-26T12:48:55.824Z,36.83
2022-10-26T12:49:55.869Z,36.46
2022-10-26T12:50:55.917Z,36.34
2022-10-26T12:51:56.000Z,36.22
2022-10-26T12:52:56.013Z,36.15
2022-10-26T12:53:56.054Z,36.18
2022-10-26T12:54:56.101Z,36.35
2022-10-26T12:55:56.154Z,36.43
2022-10-26T12:56:56.198Z,36.41
2022-10-26T12:57:56.241Z,36.12
2022-10-26T12:58:56.291Z,35.54
2022-10-26T12:59:56.354Z,34.95
2022-10-26T13:00:56.387Z,34.19
2022-10-26T13:01:56.435Z,33.68
2022-10-26T13:02:56.480Z,32.96
2022-10-26T13:03:56.528Z,32.27
2022-10-26T13:04:56.573Z,31.78
2022-10-26T13:05:56.619Z,31.32
2022-10-26T13:06:56.666Z,30.94
2022-10-26T13:07:56.711Z,30.54
2022-10-26T13:08:58.957Z,30.28
2022-10-26T13:09:56.806Z,30.13
2022-10-26T13:10:56.850Z,29.86
2022-10-26T13:11:56.896Z,29.52
2022-10-26T13:12:56.941Z,29.35
2022-10-26T13:13:56.989Z,29.08
2022-10-26T13:14:57.068Z,28.83
2022-10-26T13:15:57.073Z,28.69
2022-10-26T13:16:57.128Z,28.43
2022-10-26T13:17:57.163Z,28.28
2022-10-26T13:18:57.208Z,28.23
2022-10-26T13:19:57.250Z,28.09
2022-10-26T13:20:57.296Z,27.95
2022-10-26T13:21:57.338Z,27.49
2022-10-26T13:22:57.479Z,27.40
2022-10-26T13:23:57.424Z,27.24
2022-10-26T13:24:57.469Z,27.31
2022-10-26T13:25:57.523Z,27.31
2022-10-26T13:26:57.554Z,27.39
2022-10-26T13:27:57.595Z,27.38
2022-10-26T13:28:57.642Z,27.43
2022-10-26T13:29:57.680Z,27.66
2022-10-26T13:30:57.729Z,27.77
2022-10-26T13:31:57.767Z,27.90
2022-10-26T13:32:57.811Z,28.17
2022-10-26T13:33:57.858Z,28.48
2022-10-26T13:34:57.892Z,28.79
2022-10-26T13:35:57.934Z,29.39
2022-10-26T13:36:57.974Z,29.62
2022-10-26T13:37:58.016Z,29.79
2022-10-26T13:38:58.059Z,29.67
2022-10-26T13:39:58.104Z,29.67
2022-10-26T13:40:58.141Z,29.47
2022-10-26T13:41:58.184Z,29.36
2022-10-26T13:42:58.241Z,29.25
2022-10-26T13:43:58.264Z,29.20
2022-10-26T13:44:58.308Z,28.98
2022-10-26T13:45:58.352Z,28.83
2022-10-26T13:46:58.392Z,28.70
2022-10-26T13:47:58.427Z,28.77
2022-10-26T13:48:58.470Z,28.91
2022-10-26T13:49:58.510Z,29.29
2022-10-26T13:50:58.567Z,29.64
2022-10-26T13:51:58.596Z,29.86
2022-10-26T13:52:58.635Z,30.23
2022-10-26T13:53:58.671Z,30.32
2022-10-26T13:54:58.720Z,30.37
2022-10-26T13:55:58.754Z,30.49
2022-10-26T13:56:58.795Z,30.40
2022-10-26T13:57:58.835Z,30.32
2022-10-26T13:58:58.875Z,30.18
2022-10-26T14:00:01.504Z,30.11
2022-10-26T14:00:58.997Z,29.78
2022-10-26T14:01:59.035Z,29.44
2022-10-26T14:02:59.038Z,29.00
2022-10-26T14:03:59.076Z,28.76
2022-10-26T14:04:59.120Z,28.70
2022-10-26T14:05:59.160Z,28.62
2022-10-26T14:06:59.219Z,28.65
2022-10-26T14:07:59.259Z,28.61
2022-10-26T14:08:59.284Z,28.65
2022-10-26T14:09:59.326Z,28.74
2022-10-26T14:10:59.367Z,28.87
2022-10-26T14:11:59.410Z,28.98
2022-10-26T14:12:59.450Z,29.11
2022-10-26T14:13:59.491Z,29.23
2022-10-26T14:14:59.535Z,28.94
2022-10-26T14:15:59.605Z,28.77
2022-10-26T14:16:59.621Z,28.70
2022-10-26T14:17:59.661Z,28.61
2022-10-26T14:18:59.710Z,28.64
2022-10-26T14:19:59.739Z,28.62
2022-10-26T14:20:59.783Z,28.64
2022-10-26T14:21:59.829Z,28.60
2022-10-26T14:22:59.866Z,28.69
2022-10-26T14:23:59.908Z,28.36
2022-10-26T14:24:59.962Z,28.03
2022-10-26T14:26:00.146Z,27.72
2022-10-26T14:27:00.032Z,27.39
2022-10-26T14:28:00.082Z,27.02
2022-10-26T14:29:00.132Z,26.72
2022-10-26T14:31:00.197Z,26.16
2022-10-26T14:32:00.239Z,25.93
2022-10-26T14:33:00.283Z,25.67
2022-10-26T14:34:00.333Z,25.51
2022-10-26T14:35:00.368Z,25.23
2022-10-26T14:36:00.403Z,25.04
2022-10-26T14:37:00.443Z,24.75
2022-10-26T14:38:00.485Z,24.59
2022-10-26T14:39:00.525Z,24.45
2022-10-26T14:40:00.573Z,24.31
2022-10-26T14:41:00.608Z,24.11
2022-10-26T14:42:00.649Z,24.11
2022-10-26T14:43:00.688Z,23.97
2022-10-26T14:44:00.728Z,23.84
2022-10-26T14:45:00.770Z,23.84
2022-10-26T14:46:00.810Z,23.79
2022-10-26T14:47:00.849Z,23.63
2022-10-26T14:48:00.888Z,23.42
2022-10-26T14:49:00.933Z,23.38
2022-10-26T14:51:01.012Z,23.16
2022-10-26T14:52:01.047Z,23.00
2022-10-26T14:53:01.092Z,22.99
2022-10-26T14:54:01.156Z,22.94
2022-10-26T14:55:01.168Z,22.85
2022-10-26T14:56:01.206Z,22.76
2022-10-26T14:57:01.248Z,22.66
2022-10-26T14:58:01.286Z,22.61
2022-10-26T14:59:01.326Z,22.51